sensor_id;sensor_type;location;lat;lon;timestamp;P1;durP1;ratioP1;P2;durP2;ratioP2
9970;SDS011;5026;51.494;11.974;2023-09-18T00:01:25;6.50;;;3.90;;
9970;SDS011;5026;51.494;11.974;2023-09-18T00:03:51;4.88;;;3.83;;
9970;SDS011;5026;51.494;11.974;2023-09-18T00:06:17;5.05;;;3.80;;
9970;SDS011;5026;51.494;11.974;2023-09-18T00:08:44;6.63;;;3.47;;
9970;SDS011;5026;51.494;11.974;2023-09-18T00:11:11;4.82;;;4.18;;
9970;SDS011;5026;51.494;11.974;2023-09-18T00:13:38;4.85;;;4.20;;
9970;SDS011;5026;51.494;11.974;2023-09-18T00:16:06;7.15;;;3.60;;
9970;SDS011;5026;51.494;11.974;2023-09-18T00:18:33;4.53;;;3.90;;
9970;SDS011;5026;51.494;11.974;2023-09-18T00:21:00;8.60;;;4.55;;
9970;SDS011;5026;51.494;11.974;2023-09-18T00:23:27;5.25;;;4.00;;
9970;SDS011;5026;51.494;11.974;2023-09-18T00:25:54;5.72;;;4.57;;
9970;SDS011;5026;51.494;11.974;2023-09-18T00:28:21;5.47;;;4.38;;
9970;SDS011;5026;51.494;11.974;2023-09-18T00:30:48;6.95;;;4.50;;
9970;SDS011;5026;51.494;11.974;2023-09-18T00:33:17;5.25;;;4.45;;
9970;SDS011;5026;51.494;11.974;2023-09-18T00:35:46;4.20;;;3.80;;
9970;SDS011;5026;51.494;11.974;2023-09-18T00:38:13;6.30;;;4.40;;
9970;SDS011;5026;51.494;11.974;2023-09-18T00:40:40;6.85;;;4.50;;
9970;SDS011;5026;51.494;11.974;2023-09-18T00:43:07;4.95;;;4.32;;
9970;SDS011;5026;51.494;11.974;2023-09-18T00:45:35;6.10;;;4.20;;
9970;SDS011;5026;51.494;11.974;2023-09-18T00:48:06;4.60;;;4.20;;
9970;SDS011;5026;51.494;11.974;2023-09-18T00:50:35;5.68;;;4.22;;
9970;SDS011;5026;51.494;11.974;2023-09-18T00:53:02;4.90;;;4.20;;
9970;SDS011;5026;51.494;11.974;2023-09-18T00:55:30;5.80;;;4.68;;
9970;SDS011;5026;51.494;11.974;2023-09-18T00:57:57;6.78;;;4.60;;
9970;SDS011;5026;51.494;11.974;2023-09-18T01:00:24;7.60;;;4.20;;
9970;SDS011;5026;51.494;11.974;2023-09-18T01:02:51;7.00;;;5.05;;
9970;SDS011;5026;51.494;11.974;2023-09-18T01:05:18;6.80;;;4.68;;
9970;SDS011;5026;51.494;11.974;2023-09-18T01:07:47;4.68;;;4.28;;
9970;SDS011;5026;51.494;11.974;2023-09-18T01:10:14;7.40;;;4.95;;
9970;SDS011;5026;51.494;11.974;2023-09-18T01:12:44;7.78;;;4.40;;
9970;SDS011;5026;51.494;11.974;2023-09-18T01:15:15;5.80;;;4.32;;
9970;SDS011;5026;51.494;11.974;2023-09-18T01:17:48;6.57;;;4.50;;
9970;SDS011;5026;51.494;11.974;2023-09-18T01:20:15;6.35;;;5.00;;
9970;SDS011;5026;51.494;11.974;2023-09-18T01:22:44;8.63;;;5.35;;
9970;SDS011;5026;51.494;11.974;2023-09-18T01:25:11;6.20;;;4.82;;
9970;SDS011;5026;51.494;11.974;2023-09-18T01:27:38;6.55;;;5.03;;
9970;SDS011;5026;51.494;11.974;2023-09-18T01:30:05;6.53;;;4.63;;
9970;SDS011;5026;51.494;11.974;2023-09-18T01:32:33;5.30;;;4.82;;
9970;SDS011;5026;51.494;11.974;2023-09-18T01:35:03;6.78;;;5.00;;
9970;SDS011;5026;51.494;11.974;2023-09-18T01:37:33;5.72;;;4.30;;
9970;SDS011;5026;51.494;11.974;2023-09-18T01:40:02;5.60;;;5.07;;
9970;SDS011;5026;51.494;11.974;2023-09-18T01:42:31;5.72;;;4.57;;
9970;SDS011;5026;51.494;11.974;2023-09-18T01:44:59;10.52;;;5.88;;
9970;SDS011;5026;51.494;11.974;2023-09-18T01:47:27;7.55;;;5.03;;
9970;SDS011;5026;51.494;11.974;2023-09-18T01:49:54;6.07;;;5.03;;
9970;SDS011;5026;51.494;11.974;2023-09-18T01:52:21;6.07;;;4.95;;
9970;SDS011;5026;51.494;11.974;2023-09-18T01:54:48;5.75;;;4.60;;
9970;SDS011;5026;51.494;11.974;2023-09-18T01:57:17;6.63;;;4.65;;
9970;SDS011;5026;51.494;11.974;2023-09-18T01:59:43;6.82;;;4.68;;
9970;SDS011;5026;51.494;11.974;2023-09-18T02:02:10;8.00;;;5.00;;
9970;SDS011;5026;51.494;11.974;2023-09-18T02:04:37;7.25;;;4.60;;
9970;SDS011;5026;51.494;11.974;2023-09-18T02:07:05;7.55;;;5.00;;
9970;SDS011;5026;51.494;11.974;2023-09-18T02:09:32;8.00;;;5.00;;
9970;SDS011;5026;51.494;11.974;2023-09-18T02:11:59;9.35;;;5.53;;
9970;SDS011;5026;51.494;11.974;2023-09-18T02:14:27;5.88;;;5.10;;
9970;SDS011;5026;51.494;11.974;2023-09-18T02:16:56;8.70;;;5.22;;
9970;SDS011;5026;51.494;11.974;2023-09-18T02:19:23;8.50;;;5.30;;
9970;SDS011;5026;51.494;11.974;2023-09-18T02:21:51;6.13;;;4.68;;
9970;SDS011;5026;51.494;11.974;2023-09-18T02:24:18;9.93;;;5.45;;
9970;SDS011;5026;51.494;11.974;2023-09-18T02:26:45;9.05;;;5.05;;
9970;SDS011;5026;51.494;11.974;2023-09-18T02:29:12;6.00;;;5.00;;
9970;SDS011;5026;51.494;11.974;2023-09-18T02:31:41;8.60;;;5.75;;
9970;SDS011;5026;51.494;11.974;2023-09-18T02:34:08;6.82;;;5.15;;
9970;SDS011;5026;51.494;11.974;2023-09-18T02:36:35;8.68;;;5.07;;
9970;SDS011;5026;51.494;11.974;2023-09-18T02:39:02;7.72;;;4.90;;
9970;SDS011;5026;51.494;11.974;2023-09-18T02:41:29;6.60;;;4.90;;
9970;SDS011;5026;51.494;11.974;2023-09-18T02:43:56;10.40;;;5.25;;
9970;SDS011;5026;51.494;11.974;2023-09-18T02:46:23;6.57;;;4.78;;
9970;SDS011;5026;51.494;11.974;2023-09-18T02:48:51;5.95;;;4.85;;
9970;SDS011;5026;51.494;11.974;2023-09-18T02:51:18;7.93;;;5.50;;
9970;SDS011;5026;51.494;11.974;2023-09-18T02:53:45;7.40;;;5.43;;
9970;SDS011;5026;51.494;11.974;2023-09-18T02:56:12;5.78;;;5.18;;
9970;SDS011;5026;51.494;11.974;2023-09-18T02:58:39;8.27;;;4.95;;
9970;SDS011;5026;51.494;11.974;2023-09-18T03:01:06;5.65;;;4.85;;
9970;SDS011;5026;51.494;11.974;2023-09-18T03:03:34;6.78;;;5.72;;
9970;SDS011;5026;51.494;11.974;2023-09-18T03:06:03;8.27;;;4.97;;
9970;SDS011;5026;51.494;11.974;2023-09-18T03:08:31;6.97;;;5.00;;
9970;SDS011;5026;51.494;11.974;2023-09-18T03:10:58;5.88;;;5.38;;
9970;SDS011;5026;51.494;11.974;2023-09-18T03:13:26;5.68;;;4.85;;
9970;SDS011;5026;51.494;11.974;2023-09-18T03:15:53;7.03;;;5.13;;
9970;SDS011;5026;51.494;11.974;2023-09-18T03:18:21;6.65;;;5.05;;
9970;SDS011;5026;51.494;11.974;2023-09-18T03:20:48;7.28;;;4.75;;
9970;SDS011;5026;51.494;11.974;2023-09-18T03:23:16;7.75;;;5.25;;
9970;SDS011;5026;51.494;11.974;2023-09-18T03:25:43;6.95;;;5.18;;
9970;SDS011;5026;51.494;11.974;2023-09-18T03:28:10;6.28;;;4.88;;
9970;SDS011;5026;51.494;11.974;2023-09-18T03:30:37;5.53;;;5.03;;
9970;SDS011;5026;51.494;11.974;2023-09-18T03:33:04;10.48;;;5.40;;
9970;SDS011;5026;51.494;11.974;2023-09-18T03:35:31;12.18;;;5.72;;
9970;SDS011;5026;51.494;11.974;2023-09-18T03:37:58;7.22;;;5.20;;
9970;SDS011;5026;51.494;11.974;2023-09-18T03:40:26;7.53;;;5.53;;
9970;SDS011;5026;51.494;11.974;2023-09-18T03:42:53;7.45;;;5.43;;
9970;SDS011;5026;51.494;11.974;2023-09-18T03:45:20;8.95;;;5.22;;
9970;SDS011;5026;51.494;11.974;2023-09-18T03:47:47;7.15;;;5.32;;
9970;SDS011;5026;51.494;11.974;2023-09-18T03:50:15;6.28;;;5.05;;
9970;SDS011;5026;51.494;11.974;2023-09-18T03:52:42;9.90;;;5.13;;
9970;SDS011;5026;51.494;11.974;2023-09-18T03:55:09;7.22;;;4.82;;
9970;SDS011;5026;51.494;11.974;2023-09-18T03:57:38;8.50;;;5.03;;
9970;SDS011;5026;51.494;11.974;2023-09-18T04:00:06;7.72;;;4.95;;
9970;SDS011;5026;51.494;11.974;2023-09-18T04:02:34;5.80;;;4.97;;
9970;SDS011;5026;51.494;11.974;2023-09-18T04:05:01;6.10;;;5.50;;
9970;SDS011;5026;51.494;11.974;2023-09-18T04:07:29;6.60;;;5.25;;
9970;SDS011;5026;51.494;11.974;2023-09-18T04:09:57;6.03;;;5.30;;
9970;SDS011;5026;51.494;11.974;2023-09-18T04:12:23;6.40;;;5.65;;
9970;SDS011;5026;51.494;11.974;2023-09-18T04:14:53;7.72;;;5.50;;
9970;SDS011;5026;51.494;11.974;2023-09-18T04:17:19;8.18;;;5.07;;
9970;SDS011;5026;51.494;11.974;2023-09-18T04:19:47;7.03;;;4.68;;
9970;SDS011;5026;51.494;11.974;2023-09-18T04:22:14;6.97;;;4.88;;
9970;SDS011;5026;51.494;11.974;2023-09-18T04:24:41;6.57;;;5.05;;
9970;SDS011;5026;51.494;11.974;2023-09-18T04:27:08;8.00;;;5.55;;
9970;SDS011;5026;51.494;11.974;2023-09-18T04:29:35;7.50;;;5.57;;
9970;SDS011;5026;51.494;11.974;2023-09-18T04:32:04;7.07;;;5.70;;
9970;SDS011;5026;51.494;11.974;2023-09-18T04:34:32;8.23;;;5.63;;
9970;SDS011;5026;51.494;11.974;2023-09-18T04:37:00;7.90;;;5.60;;
9970;SDS011;5026;51.494;11.974;2023-09-18T04:39:28;5.82;;;5.22;;
9970;SDS011;5026;51.494;11.974;2023-09-18T04:41:58;10.93;;;5.53;;
9970;SDS011;5026;51.494;11.974;2023-09-18T04:44:28;6.35;;;5.40;;
9970;SDS011;5026;51.494;11.974;2023-09-18T04:46:55;8.23;;;5.25;;
9970;SDS011;5026;51.494;11.974;2023-09-18T04:49:24;8.68;;;5.63;;
9970;SDS011;5026;51.494;11.974;2023-09-18T04:51:53;6.20;;;5.03;;
9970;SDS011;5026;51.494;11.974;2023-09-18T04:54:20;5.57;;;5.05;;
9970;SDS011;5026;51.494;11.974;2023-09-18T04:56:47;7.97;;;5.93;;
9970;SDS011;5026;51.494;11.974;2023-09-18T04:59:14;10.52;;;5.50;;
9970;SDS011;5026;51.494;11.974;2023-09-18T05:01:41;10.48;;;5.82;;
9970;SDS011;5026;51.494;11.974;2023-09-18T05:04:09;7.45;;;6.00;;
9970;SDS011;5026;51.494;11.974;2023-09-18T05:06:37;6.03;;;5.43;;
9970;SDS011;5026;51.494;11.974;2023-09-18T05:09:05;6.65;;;5.75;;
9970;SDS011;5026;51.494;11.974;2023-09-18T05:11:32;7.75;;;5.32;;
9970;SDS011;5026;51.494;11.974;2023-09-18T05:13:59;6.03;;;5.43;;
9970;SDS011;5026;51.494;11.974;2023-09-18T05:16:26;7.93;;;5.40;;
9970;SDS011;5026;51.494;11.974;2023-09-18T05:18:53;10.25;;;5.15;;
9970;SDS011;5026;51.494;11.974;2023-09-18T05:21:20;5.88;;;5.28;;
9970;SDS011;5026;51.494;11.974;2023-09-18T05:23:51;6.40;;;4.97;;
9970;SDS011;5026;51.494;11.974;2023-09-18T05:26:18;8.70;;;5.35;;
9970;SDS011;5026;51.494;11.974;2023-09-18T05:28:48;9.57;;;5.45;;
9970;SDS011;5026;51.494;11.974;2023-09-18T05:31:16;8.98;;;5.45;;
9970;SDS011;5026;51.494;11.974;2023-09-18T05:33:42;7.00;;;6.22;;
9970;SDS011;5026;51.494;11.974;2023-09-18T05:36:09;6.43;;;5.25;;
9970;SDS011;5026;51.494;11.974;2023-09-18T05:38:38;12.18;;;5.47;;
9970;SDS011;5026;51.494;11.974;2023-09-18T05:41:07;6.43;;;5.40;;
9970;SDS011;5026;51.494;11.974;2023-09-18T05:43:34;7.60;;;5.03;;
9970;SDS011;5026;51.494;11.974;2023-09-18T05:46:01;9.43;;;5.40;;
9970;SDS011;5026;51.494;11.974;2023-09-18T05:48:28;9.48;;;5.78;;
9970;SDS011;5026;51.494;11.974;2023-09-18T05:50:56;8.48;;;5.43;;
9970;SDS011;5026;51.494;11.974;2023-09-18T05:53:23;6.32;;;5.03;;
9970;SDS011;5026;51.494;11.974;2023-09-18T05:55:50;6.85;;;5.40;;
9970;SDS011;5026;51.494;11.974;2023-09-18T05:58:19;7.43;;;4.85;;
9970;SDS011;5026;51.494;11.974;2023-09-18T06:00:49;8.05;;;5.45;;
9970;SDS011;5026;51.494;11.974;2023-09-18T06:03:16;6.82;;;5.63;;
9970;SDS011;5026;51.494;11.974;2023-09-18T06:05:45;7.55;;;5.90;;
9970;SDS011;5026;51.494;11.974;2023-09-18T06:08:11;6.60;;;5.28;;
9970;SDS011;5026;51.494;11.974;2023-09-18T06:10:38;6.65;;;5.32;;
9970;SDS011;5026;51.494;11.974;2023-09-18T06:13:05;5.57;;;5.07;;
9970;SDS011;5026;51.494;11.974;2023-09-18T06:15:34;6.78;;;5.55;;
9970;SDS011;5026;51.494;11.974;2023-09-18T06:18:01;6.30;;;5.30;;
9970;SDS011;5026;51.494;11.974;2023-09-18T06:20:29;6.53;;;5.43;;
9970;SDS011;5026;51.494;11.974;2023-09-18T06:22:56;7.72;;;5.25;;
9970;SDS011;5026;51.494;11.974;2023-09-18T06:25:23;5.88;;;4.88;;
9970;SDS011;5026;51.494;11.974;2023-09-18T06:27:50;8.93;;;5.20;;
9970;SDS011;5026;51.494;11.974;2023-09-18T06:30:17;5.30;;;4.72;;
9970;SDS011;5026;51.494;11.974;2023-09-18T06:32:45;6.25;;;4.97;;
9970;SDS011;5026;51.494;11.974;2023-09-18T06:35:12;5.43;;;4.50;;
9970;SDS011;5026;51.494;11.974;2023-09-18T06:37:39;5.75;;;4.35;;
9970;SDS011;5026;51.494;11.974;2023-09-18T06:40:06;5.05;;;4.55;;
9970;SDS011;5026;51.494;11.974;2023-09-18T06:42:34;7.32;;;4.50;;
9970;SDS011;5026;51.494;11.974;2023-09-18T06:45:02;4.60;;;4.20;;
9970;SDS011;5026;51.494;11.974;2023-09-18T06:47:31;6.13;;;4.15;;
9970;SDS011;5026;51.494;11.974;2023-09-18T06:50:00;4.40;;;4.00;;
9970;SDS011;5026;51.494;11.974;2023-09-18T06:52:29;6.68;;;3.83;;
9970;SDS011;5026;51.494;11.974;2023-09-18T06:54:56;5.60;;;4.13;;
9970;SDS011;5026;51.494;11.974;2023-09-18T06:57:23;7.68;;;4.20;;
9970;SDS011;5026;51.494;11.974;2023-09-18T06:59:50;5.63;;;4.10;;
9970;SDS011;5026;51.494;11.974;2023-09-18T07:02:18;3.65;;;3.35;;
9970;SDS011;5026;51.494;11.974;2023-09-18T07:04:44;5.22;;;3.65;;
9970;SDS011;5026;51.494;11.974;2023-09-18T07:07:13;7.70;;;3.80;;
9970;SDS011;5026;51.494;11.974;2023-09-18T07:09:40;9.23;;;3.83;;
9970;SDS011;5026;51.494;11.974;2023-09-18T07:12:08;5.32;;;3.88;;
9970;SDS011;5026;51.494;11.974;2023-09-18T07:14:35;8.80;;;4.55;;
9970;SDS011;5026;51.494;11.974;2023-09-18T07:17:03;7.85;;;3.92;;
9970;SDS011;5026;51.494;11.974;2023-09-18T07:19:30;7.05;;;4.22;;
9970;SDS011;5026;51.494;11.974;2023-09-18T07:21:57;12.32;;;4.43;;
9970;SDS011;5026;51.494;11.974;2023-09-18T07:24:26;5.45;;;4.28;;
9970;SDS011;5026;51.494;11.974;2023-09-18T07:26:53;5.82;;;3.95;;
9970;SDS011;5026;51.494;11.974;2023-09-18T07:29:22;5.90;;;4.20;;
9970;SDS011;5026;51.494;11.974;2023-09-18T07:31:50;6.00;;;3.90;;
9970;SDS011;5026;51.494;11.974;2023-09-18T07:34:17;5.30;;;3.80;;
9970;SDS011;5026;51.494;11.974;2023-09-18T07:36:44;5.32;;;3.88;;
9970;SDS011;5026;51.494;11.974;2023-09-18T07:39:11;4.95;;;3.75;;
9970;SDS011;5026;51.494;11.974;2023-09-18T07:41:40;8.10;;;4.13;;
9970;SDS011;5026;51.494;11.974;2023-09-18T07:44:07;5.10;;;4.00;;
9970;SDS011;5026;51.494;11.974;2023-09-18T07:46:34;8.00;;;4.10;;
9970;SDS011;5026;51.494;11.974;2023-09-18T07:49:01;8.13;;;3.72;;
9970;SDS011;5026;51.494;11.974;2023-09-18T07:51:28;13.60;;;4.07;;
9970;SDS011;5026;51.494;11.974;2023-09-18T07:53:55;7.53;;;3.95;;
9970;SDS011;5026;51.494;11.974;2023-09-18T07:56:22;6.53;;;4.35;;
9970;SDS011;5026;51.494;11.974;2023-09-18T07:58:50;4.15;;;3.33;;
9970;SDS011;5026;51.494;11.974;2023-09-18T08:01:17;7.47;;;3.80;;
9970;SDS011;5026;51.494;11.974;2023-09-18T08:03:47;6.78;;;3.40;;
9970;SDS011;5026;51.494;11.974;2023-09-18T08:06:14;7.80;;;3.92;;
9970;SDS011;5026;51.494;11.974;2023-09-18T08:08:44;6.90;;;3.45;;
9970;SDS011;5026;51.494;11.974;2023-09-18T08:11:11;3.92;;;3.63;;
9970;SDS011;5026;51.494;11.974;2023-09-18T08:13:38;4.82;;;3.38;;
9970;SDS011;5026;51.494;11.974;2023-09-18T08:16:07;10.00;;;3.67;;
9970;SDS011;5026;51.494;11.974;2023-09-18T08:18:33;4.47;;;3.30;;
9970;SDS011;5026;51.494;11.974;2023-09-18T08:21:00;5.40;;;3.38;;
9970;SDS011;5026;51.494;11.974;2023-09-18T08:23:27;4.43;;;3.35;;
9970;SDS011;5026;51.494;11.974;2023-09-18T08:25:54;4.30;;;3.33;;
9970;SDS011;5026;51.494;11.974;2023-09-18T08:28:22;5.20;;;3.85;;
9970;SDS011;5026;51.494;11.974;2023-09-18T08:30:49;6.28;;;3.38;;
9970;SDS011;5026;51.494;11.974;2023-09-18T08:33:17;3.95;;;3.65;;
9970;SDS011;5026;51.494;11.974;2023-09-18T08:35:45;4.80;;;3.55;;
9970;SDS011;5026;51.494;11.974;2023-09-18T08:38:14;6.22;;;3.40;;
9970;SDS011;5026;51.494;11.974;2023-09-18T08:40:41;7.85;;;3.60;;
9970;SDS011;5026;51.494;11.974;2023-09-18T08:43:09;6.40;;;3.08;;
9970;SDS011;5026;51.494;11.974;2023-09-18T08:45:38;5.00;;;2.90;;
9970;SDS011;5026;51.494;11.974;2023-09-18T08:48:10;6.43;;;3.40;;
9970;SDS011;5026;51.494;11.974;2023-09-18T08:50:39;3.95;;;3.10;;
9970;SDS011;5026;51.494;11.974;2023-09-18T08:53:06;6.10;;;3.20;;
9970;SDS011;5026;51.494;11.974;2023-09-18T08:55:33;5.30;;;2.97;;
9970;SDS011;5026;51.494;11.974;2023-09-18T08:58:01;3.80;;;3.40;;
9970;SDS011;5026;51.494;11.974;2023-09-18T09:00:28;4.82;;;3.28;;
9970;SDS011;5026;51.494;11.974;2023-09-18T09:02:55;6.82;;;3.55;;
9970;SDS011;5026;51.494;11.974;2023-09-18T09:05:22;5.97;;;3.20;;
9970;SDS011;5026;51.494;11.974;2023-09-18T09:07:50;5.65;;;2.83;;
9970;SDS011;5026;51.494;11.974;2023-09-18T09:10:17;4.93;;;3.30;;
9970;SDS011;5026;51.494;11.974;2023-09-18T09:12:48;6.97;;;3.20;;
9970;SDS011;5026;51.494;11.974;2023-09-18T09:15:20;4.75;;;3.30;;
9970;SDS011;5026;51.494;11.974;2023-09-18T09:17:48;3.05;;;2.80;;
9970;SDS011;5026;51.494;11.974;2023-09-18T09:20:16;7.82;;;3.50;;
9970;SDS011;5026;51.494;11.974;2023-09-18T09:22:44;5.03;;;3.17;;
9970;SDS011;5026;51.494;11.974;2023-09-18T09:25:23;5.53;;;3.40;;
9970;SDS011;5026;51.494;11.974;2023-09-18T09:27:52;4.25;;;3.50;;
9970;SDS011;5026;51.494;11.974;2023-09-18T09:30:20;8.43;;;3.85;;
9970;SDS011;5026;51.494;11.974;2023-09-18T09:32:48;4.97;;;3.20;;
9970;SDS011;5026;51.494;11.974;2023-09-18T09:35:20;3.90;;;3.22;;
9970;SDS011;5026;51.494;11.974;2023-09-18T09:37:49;6.70;;;3.30;;
9970;SDS011;5026;51.494;11.974;2023-09-18T09:40:19;4.47;;;3.28;;
9970;SDS011;5026;51.494;11.974;2023-09-18T09:42:49;6.93;;;3.60;;
9970;SDS011;5026;51.494;11.974;2023-09-18T09:45:19;7.03;;;3.08;;
9970;SDS011;5026;51.494;11.974;2023-09-18T09:47:46;5.35;;;3.58;;
9970;SDS011;5026;51.494;11.974;2023-09-18T09:50:14;3.30;;;2.90;;
9970;SDS011;5026;51.494;11.974;2023-09-18T09:52:45;3.33;;;3.10;;
9970;SDS011;5026;51.494;11.974;2023-09-18T09:55:17;7.50;;;3.50;;
9970;SDS011;5026;51.494;11.974;2023-09-18T09:57:51;6.32;;;3.30;;
9970;SDS011;5026;51.494;11.974;2023-09-18T10:00:22;3.70;;;3.17;;
9970;SDS011;5026;51.494;11.974;2023-09-18T10:02:59;4.40;;;3.05;;
9970;SDS011;5026;51.494;11.974;2023-09-18T10:05:31;4.88;;;3.90;;
9970;SDS011;5026;51.494;11.974;2023-09-18T10:08:01;7.15;;;3.63;;
9970;SDS011;5026;51.494;11.974;2023-09-18T10:10:31;3.97;;;3.30;;
9970;SDS011;5026;51.494;11.974;2023-09-18T10:13:04;6.50;;;3.63;;
9970;SDS011;5026;51.494;11.974;2023-09-18T10:15:36;4.85;;;3.20;;
9970;SDS011;5026;51.494;11.974;2023-09-18T10:18:05;7.35;;;3.90;;
9970;SDS011;5026;51.494;11.974;2023-09-18T10:20:40;7.45;;;3.70;;
9970;SDS011;5026;51.494;11.974;2023-09-18T10:23:12;6.22;;;3.63;;
9970;SDS011;5026;51.494;11.974;2023-09-18T10:25:48;6.20;;;3.67;;
9970;SDS011;5026;51.494;11.974;2023-09-18T10:28:21;10.25;;;4.18;;
9970;SDS011;5026;51.494;11.974;2023-09-18T10:30:51;8.38;;;3.88;;
9970;SDS011;5026;51.494;11.974;2023-09-18T10:33:18;7.25;;;3.70;;
9970;SDS011;5026;51.494;11.974;2023-09-18T10:35:46;6.00;;;3.45;;
9970;SDS011;5026;51.494;11.974;2023-09-18T10:38:14;4.80;;;3.22;;
9970;SDS011;5026;51.494;11.974;2023-09-18T10:40:43;12.45;;;3.78;;
9970;SDS011;5026;51.494;11.974;2023-09-18T10:43:12;7.90;;;3.70;;
9970;SDS011;5026;51.494;11.974;2023-09-18T10:45:43;9.00;;;3.80;;
9970;SDS011;5026;51.494;11.974;2023-09-18T10:48:11;7.38;;;3.70;;
9970;SDS011;5026;51.494;11.974;2023-09-18T10:50:39;6.97;;;3.55;;
9970;SDS011;5026;51.494;11.974;2023-09-18T10:53:10;8.30;;;3.65;;
9970;SDS011;5026;51.494;11.974;2023-09-18T10:55:37;6.15;;;3.50;;
9970;SDS011;5026;51.494;11.974;2023-09-18T10:58:04;4.35;;;3.38;;
9970;SDS011;5026;51.494;11.974;2023-09-18T11:00:31;6.07;;;3.45;;
9970;SDS011;5026;51.494;11.974;2023-09-18T11:03:22;5.35;;;3.63;;
9970;SDS011;5026;51.494;11.974;2023-09-18T11:06:01;8.88;;;4.50;;
9970;SDS011;5026;51.494;11.974;2023-09-18T11:08:30;8.57;;;3.65;;
9970;SDS011;5026;51.494;11.974;2023-09-18T11:11:05;9.10;;;3.45;;
9970;SDS011;5026;51.494;11.974;2023-09-18T11:13:37;7.32;;;3.60;;
9970;SDS011;5026;51.494;11.974;2023-09-18T11:16:17;6.35;;;3.47;;
9970;SDS011;5026;51.494;11.974;2023-09-18T11:19:07;7.53;;;3.70;;
9970;SDS011;5026;51.494;11.974;2023-09-18T11:21:36;5.75;;;3.38;;
9970;SDS011;5026;51.494;11.974;2023-09-18T11:24:04;9.75;;;4.15;;
9970;SDS011;5026;51.494;11.974;2023-09-18T11:26:36;8.23;;;3.42;;
9970;SDS011;5026;51.494;11.974;2023-09-18T11:29:07;6.53;;;3.63;;
9970;SDS011;5026;51.494;11.974;2023-09-18T11:31:41;8.88;;;3.72;;
9970;SDS011;5026;51.494;11.974;2023-09-18T11:34:14;9.80;;;3.58;;
9970;SDS011;5026;51.494;11.974;2023-09-18T11:36:45;7.63;;;3.90;;
9970;SDS011;5026;51.494;11.974;2023-09-18T11:39:12;8.50;;;3.40;;
9970;SDS011;5026;51.494;11.974;2023-09-18T11:41:39;5.25;;;3.50;;
9970;SDS011;5026;51.494;11.974;2023-09-18T11:47:00;6.50;;;4.00;;
9970;SDS011;5026;51.494;11.974;2023-09-18T11:49:30;14.48;;;4.07;;
9970;SDS011;5026;51.494;11.974;2023-09-18T11:51:58;10.50;;;3.80;;
9970;SDS011;5026;51.494;11.974;2023-09-18T11:54:27;11.95;;;3.88;;
9970;SDS011;5026;51.494;11.974;2023-09-18T11:56:54;5.65;;;3.58;;
9970;SDS011;5026;51.494;11.974;2023-09-18T11:59:33;11.13;;;3.80;;
9970;SDS011;5026;51.494;11.974;2023-09-18T12:02:01;9.50;;;3.47;;
9970;SDS011;5026;51.494;11.974;2023-09-18T12:04:32;8.98;;;3.55;;
9970;SDS011;5026;51.494;11.974;2023-09-18T12:06:59;9.85;;;3.85;;
9970;SDS011;5026;51.494;11.974;2023-09-18T12:09:28;6.57;;;3.40;;
9970;SDS011;5026;51.494;11.974;2023-09-18T12:11:56;7.25;;;3.20;;
9970;SDS011;5026;51.494;11.974;2023-09-18T12:14:23;14.25;;;3.55;;
9970;SDS011;5026;51.494;11.974;2023-09-18T12:16:50;9.15;;;3.90;;
9970;SDS011;5026;51.494;11.974;2023-09-18T12:19:17;7.15;;;3.55;;
9970;SDS011;5026;51.494;11.974;2023-09-18T12:21:47;6.85;;;3.20;;
9970;SDS011;5026;51.494;11.974;2023-09-18T12:24:14;7.70;;;3.50;;
9970;SDS011;5026;51.494;11.974;2023-09-18T12:26:41;10.20;;;2.83;;
9970;SDS011;5026;51.494;11.974;2023-09-18T12:29:08;12.00;;;3.53;;
9970;SDS011;5026;51.494;11.974;2023-09-18T12:31:37;11.82;;;2.95;;
9970;SDS011;5026;51.494;11.974;2023-09-18T12:34:04;6.40;;;2.80;;
9970;SDS011;5026;51.494;11.974;2023-09-18T12:36:41;7.45;;;3.08;;
9970;SDS011;5026;51.494;11.974;2023-09-18T12:39:10;8.60;;;3.50;;
9970;SDS011;5026;51.494;11.974;2023-09-18T12:41:38;9.07;;;3.70;;
9970;SDS011;5026;51.494;11.974;2023-09-18T12:44:05;7.05;;;3.35;;
9970;SDS011;5026;51.494;11.974;2023-09-18T12:46:33;6.80;;;3.22;;
9970;SDS011;5026;51.494;11.974;2023-09-18T12:49:14;7.65;;;3.58;;
9970;SDS011;5026;51.494;11.974;2023-09-18T12:51:42;9.38;;;3.92;;
9970;SDS011;5026;51.494;11.974;2023-09-18T12:54:13;10.23;;;3.72;;
9970;SDS011;5026;51.494;11.974;2023-09-18T12:56:41;12.43;;;3.60;;
9970;SDS011;5026;51.494;11.974;2023-09-18T12:59:08;8.27;;;2.80;;
9970;SDS011;5026;51.494;11.974;2023-09-18T13:01:37;8.60;;;3.00;;
9970;SDS011;5026;51.494;11.974;2023-09-18T13:04:06;8.32;;;3.67;;
9970;SDS011;5026;51.494;11.974;2023-09-18T13:06:38;7.97;;;3.47;;
9970;SDS011;5026;51.494;11.974;2023-09-18T13:09:16;7.43;;;3.60;;
9970;SDS011;5026;51.494;11.974;2023-09-18T13:11:54;9.50;;;3.25;;
9970;SDS011;5026;51.494;11.974;2023-09-18T13:14:22;5.40;;;3.20;;
9970;SDS011;5026;51.494;11.974;2023-09-18T13:16:49;5.85;;;3.72;;
9970;SDS011;5026;51.494;11.974;2023-09-18T13:19:16;8.13;;;3.15;;
9970;SDS011;5026;51.494;11.974;2023-09-18T13:21:47;8.20;;;3.25;;
9970;SDS011;5026;51.494;11.974;2023-09-18T13:24:26;6.18;;;3.15;;
9970;SDS011;5026;51.494;11.974;2023-09-18T13:26:53;4.82;;;2.83;;
9970;SDS011;5026;51.494;11.974;2023-09-18T13:29:21;7.38;;;3.10;;
9970;SDS011;5026;51.494;11.974;2023-09-18T13:31:49;6.30;;;3.15;;
9970;SDS011;5026;51.494;11.974;2023-09-18T13:34:17;11.18;;;3.13;;
9970;SDS011;5026;51.494;11.974;2023-09-18T13:36:44;9.50;;;2.90;;
9970;SDS011;5026;51.494;11.974;2023-09-18T13:39:11;9.13;;;2.97;;
9970;SDS011;5026;51.494;11.974;2023-09-18T13:41:39;5.20;;;2.85;;
9970;SDS011;5026;51.494;11.974;2023-09-18T13:44:07;6.30;;;2.72;;
9970;SDS011;5026;51.494;11.974;2023-09-18T13:46:35;11.55;;;2.67;;
9970;SDS011;5026;51.494;11.974;2023-09-18T13:49:02;5.03;;;2.92;;
9970;SDS011;5026;51.494;11.974;2023-09-18T13:51:30;7.00;;;2.65;;
9970;SDS011;5026;51.494;11.974;2023-09-18T13:53:57;3.92;;;2.28;;
9970;SDS011;5026;51.494;11.974;2023-09-18T13:56:24;5.05;;;1.85;;
9970;SDS011;5026;51.494;11.974;2023-09-18T13:58:54;3.63;;;2.00;;
9970;SDS011;5026;51.494;11.974;2023-09-18T14:01:22;3.25;;;2.13;;
9970;SDS011;5026;51.494;11.974;2023-09-18T14:03:50;5.85;;;2.10;;
9970;SDS011;5026;51.494;11.974;2023-09-18T14:06:18;5.85;;;1.90;;
9970;SDS011;5026;51.494;11.974;2023-09-18T14:08:45;3.92;;;1.92;;
9970;SDS011;5026;51.494;11.974;2023-09-18T14:11:12;4.18;;;2.03;;
9970;SDS011;5026;51.494;11.974;2023-09-18T14:13:38;5.22;;;2.22;;
9970;SDS011;5026;51.494;11.974;2023-09-18T14:16:08;3.35;;;2.10;;
9970;SDS011;5026;51.494;11.974;2023-09-18T14:18:37;4.05;;;2.28;;
9970;SDS011;5026;51.494;11.974;2023-09-18T14:21:04;4.05;;;2.00;;
9970;SDS011;5026;51.494;11.974;2023-09-18T14:23:31;5.35;;;2.00;;
9970;SDS011;5026;51.494;11.974;2023-09-18T14:25:59;9.05;;;2.28;;
9970;SDS011;5026;51.494;11.974;2023-09-18T14:28:26;5.97;;;2.10;;
9970;SDS011;5026;51.494;11.974;2023-09-18T14:30:53;3.35;;;1.95;;
9970;SDS011;5026;51.494;11.974;2023-09-18T14:33:22;6.97;;;2.58;;
9970;SDS011;5026;51.494;11.974;2023-09-18T14:35:49;2.78;;;2.10;;
9970;SDS011;5026;51.494;11.974;2023-09-18T14:38:16;5.72;;;2.50;;
9970;SDS011;5026;51.494;11.974;2023-09-18T14:40:43;3.38;;;2.47;;
9970;SDS011;5026;51.494;11.974;2023-09-18T14:43:10;4.55;;;3.05;;
9970;SDS011;5026;51.494;11.974;2023-09-18T14:45:37;4.72;;;2.42;;
9970;SDS011;5026;51.494;11.974;2023-09-18T14:48:05;7.70;;;2.67;;
9970;SDS011;5026;51.494;11.974;2023-09-18T14:50:33;5.55;;;2.50;;
9970;SDS011;5026;51.494;11.974;2023-09-18T14:53:00;4.25;;;3.17;;
9970;SDS011;5026;51.494;11.974;2023-09-18T14:55:28;7.03;;;3.47;;
9970;SDS011;5026;51.494;11.974;2023-09-18T14:57:55;4.47;;;2.97;;
9970;SDS011;5026;51.494;11.974;2023-09-18T15:00:22;5.22;;;3.00;;
9970;SDS011;5026;51.494;11.974;2023-09-18T15:02:50;7.72;;;2.72;;
9970;SDS011;5026;51.494;11.974;2023-09-18T15:05:17;6.70;;;2.78;;
9970;SDS011;5026;51.494;11.974;2023-09-18T15:07:45;6.32;;;2.50;;
9970;SDS011;5026;51.494;11.974;2023-09-18T15:10:12;4.40;;;2.90;;